Аэропорт
Бесовец (ULPB)

 ULPB / PES
ЗЦ Санкт-Петербург
Санкт-Петербург (ULLL)
Санкт-Петербург (ULLL)
 61.88520, 34.15470  / 151 ft

 ULPB 070300Z AUTO 00000MPS 9999 -SN M07/M08 Q0984 RMK QFE734/0979
 TAF ULPB 062259Z 0700/0709 18003MPS 6000 -SN OVC016 TEMPO 0700/0702 14007MPS 3100 -SHSN OVC011 BKN016CB BECMG 0705/0706 14004G09MPS TEMPO 0706/0709 10006MPS 3100 -SHSN BKN016CB
показать схемы
Название сценария Тип сценария Flight Simulator 9 Flight Simulator X Prepar3D v2 Prepar3D v3 Prepar3D v4 Prepar3D v5 xPlane
ULPB http://x-flight.su/ бесплатный
ULPB-MSFS БОРАТ САГДИЕВ бесплатный
ULPB-Petrozavodsk RUSLAN бесплатный


2020 © VATRUS division (Privacy Policy)